F/V Mare Liberum — FVHW — position and weather

sailwx.info

Track history (hours):
 
Tides and Currents Weather Stations Pressure Air Temp Water Temp Dewpoint Dewpoint Depression Visibility Wind Speed Wind Dir Waves Ship Positions

F/V Mare Liberum

Last reported at 2016-Dec-10 02:33 UTC. Time now 2016-Dec-10 03:09 UTC.
Position N 46°23' W 002°21'.

Length 21 m.

Type: Fishing. MMSI: 227426000.

Date/timePositionNaut miles runAvg speedWind from/ knotsBaromVisibWave heightAir tempDewpointWater temp
2016-Dec-10 02:33N 46°23' W 002°21'1 1.0
2016-Dec-10 01:34N 46°22' W 002°20'0 0.1
2016-Dec-10 00:34N 46°22' W 002°20'0 0.0
2016-Dec-09 23:34N 46°22' W 002°20'0 0.0
2016-Dec-09 22:33N 46°22' W 002°20'0 0.0
2016-Dec-09 21:34N 46°22' W 002°20'0 0.0
2016-Dec-09 20:33N 46°22' W 002°20'0 0.0
2016-Dec-09 19:32N 46°22' W 002°20'0 0.0
2016-Dec-09 18:33N 46°22' W 002°20'10 1.4
2016-Dec-09 11:30N 46°18' W 002°07'3 2.0
2016-Dec-09 10:11N 46°15' W 002°05'2 1.9
2016-Dec-09 09:15N 46°14' W 002°04'1 1.8
2016-Dec-09 08:33N 46°15' W 002°05'3 1.3
2016-Dec-09 06:33N 46°17' W 002°07'4 2.7
2016-Dec-09 05:12N 46°14' W 002°03'1 1.6
2016-Dec-09 04:23N 46°15' W 002°04'2 1.9
2016-Dec-09 03:31N 46°14' W 002°03'0 0.0
2016-Dec-09 02:33N 46°14' W 002°03'0 0.0
2016-Dec-09 01:34N 46°14' W 002°03'0 0.0
2016-Dec-09 00:34N 46°14' W 002°03'0 0.0
2016-Dec-08 23:31N 46°14' W 002°03'0 0.0
2016-Dec-08 22:23N 46°14' W 002°03'0 0.0
2016-Dec-08 19:26N 46°14' W 002°03'5 0.5
2016-Dec-08 10:24N 46°18' W 002°07'3 1.6
2016-Dec-08 08:22N 46°15' W 002°05'2 2.5
2016-Dec-08 07:29N 46°17' W 002°06'1 0.9
2016-Dec-08 06:19N 46°16' W 002°05'2 2.9
2016-Dec-08 05:30N 46°14' W 002°03'4 0.9
2016-Dec-08 00:33N 46°18' W 002°07'0 0.0
2016-Dec-07 21:32N 46°18' W 002°07'0 0.0
2016-Dec-07 20:32N 46°18' W 002°07'0 0.0
2016-Dec-07 19:29N 46°18' W 002°07'0 0.0
2016-Dec-07 18:28N 46°18' W 002°07'0 0.0
2016-Dec-07 17:22N 46°18' W 002°07'0 0.0
2016-Dec-07 16:13N 46°18' W 002°07'0 0.0
2016-Dec-07 15:33N 46°18' W 002°07'0 0.0
2016-Dec-07 14:33N 46°18' W 002°07'1 0.6
2016-Dec-07 13:32N 46°17' W 002°07'1 0.5
2016-Dec-07 12:33N 46°18' W 002°07'0 0.2
2016-Dec-07 11:28N 46°18' W 002°07'1 0.5
2016-Dec-07 10:23N 46°18' W 002°07'1 1.5
2016-Dec-07 09:32N 46°17' W 002°06'2 1.9
2016-Dec-07 08:30N 46°15' W 002°04'2 2.0
2016-Dec-07 07:32N 46°17' W 002°06'1 0.6
2016-Dec-07 06:29N 46°16' W 002°06'0 0.2
2016-Dec-07 05:33N 46°16' W 002°06'1 0.9
2016-Dec-07 04:21N 46°17' W 002°07'0 0.4
2016-Dec-07 03:30N 46°17' W 002°07'4 4.7
2016-Dec-07 02:33N 46°21' W 002°09'8 7.5
2016-Dec-07 01:33N 46°29' W 002°11'8 7.7
2016-Dec-07 00:33N 46°36' W 002°13'8 8.1
2016-Dec-06 23:33N 46°44' W 002°16'8 8.6
2016-Dec-06 22:33N 46°52' W 002°21'9 8.5
2016-Dec-06 21:31N 47°01' W 002°21'2 2.1
2016-Dec-06 20:33N 47°01' W 002°18'0 0.0
2016-Dec-06 18:32N 47°01' W 002°18'0 0.0
2016-Dec-06 17:33N 47°01' W 002°18'0 0.0
2016-Dec-06 16:34N 47°01' W 002°18'0 0.0
2016-Dec-06 15:33N 47°01' W 002°18'0 0.0
2016-Dec-06 14:34N 47°01' W 002°18'0 0.0
2016-Dec-06 13:33N 47°01' W 002°18'0 0.0
2016-Dec-06 12:33N 47°01' W 002°18'0 0.0
2016-Dec-06 11:33N 47°01' W 002°18'0 0.0
2016-Dec-06 10:34N 47°01' W 002°18'0 0.0
2016-Dec-06 09:32N 47°01' W 002°18'0 0.0
2016-Dec-06 08:34N 47°01' W 002°18'0 0.0
2016-Dec-06 07:33N 47°01' W 002°18'0 0.0
2016-Dec-06 06:34N 47°01' W 002°18'0 0.0
2016-Dec-06 05:34N 47°01' W 002°18'0 0.0
2016-Dec-06 04:34N 47°01' W 002°18'0 0.0
2016-Dec-06 03:31N 47°01' W 002°18'0 0.0
2016-Dec-06 02:32N 47°01' W 002°18'0 0.0
2016-Dec-06 01:33N 47°01' W 002°18'0 0.0
2016-Dec-06 00:33N 47°01' W 002°18'0 0.0
2016-Dec-05 23:33N 47°01' W 002°18'0 0.0
2016-Dec-05 22:34N 47°01' W 002°18'0 0.0
2016-Dec-05 21:34N 47°01' W 002°18'0 0.0
2016-Dec-05 20:33N 47°01' W 002°18'0 0.0
2016-Dec-05 19:34N 47°01' W 002°18'0 0.0
2016-Dec-05 18:33N 47°01' W 002°18'0 0.0
2016-Dec-05 17:32N 47°01' W 002°18'0 0.0
2016-Dec-05 16:33N 47°01' W 002°18'0 0.1
2016-Dec-05 15:33N 47°02' W 002°18'2 1.5
2016-Dec-05 14:32N 47°01' W 002°20'8 6.9
2016-Dec-05 13:20N 46°53' W 002°21'7 9.2
2016-Dec-05 12:33N 46°46' W 002°18'18 9.0
2016-Dec-05 10:34N 46°29' W 002°11'10 8.8
2016-Dec-05 09:28N 46°20' W 002°08'5 0.6
2016-Dec-05 01:15N 46°15' W 002°05'3 0.2
2016-Dec-04 11:15N 46°18' W 002°07'1 0.2
2016-Dec-04 07:24N 46°18' W 002°08'3 0.7
2016-Dec-04 03:23N 46°16' W 002°05'2 2.9
2016-Dec-04 02:32N 46°18' W 002°07'1 0.3
2016-Dec-03 22:10N 46°18' W 002°09'1 0.1
2016-Dec-03 13:32N 46°19' W 002°09'12 0.5
2016-Dec-02 14:23N 46°16' W 002°26'9 9.0
2016-Dec-02 13:27N 46°24' W 002°21'1 1.1
2016-Dec-02 12:32N 46°24' W 002°20'2 1.6
2016-Dec-02 11:31N 46°23' W 002°20'2 0.8
2016-Dec-02 09:23N 46°24' W 002°21'0 0.3
2016-Dec-02 08:25N 46°25' W 002°21'1 0.6
2016-Dec-02 07:32N 46°25' W 002°21'1 1.2
2016-Dec-02 06:33N 46°24' W 002°20'1 1.1
2016-Dec-02 05:32N 46°25' W 002°21'2 2.2
2016-Dec-02 04:33N 46°23' W 002°20'0 0.0
2016-Dec-02 03:33N 46°23' W 002°20'0 0.0
2016-Dec-02 02:33N 46°23' W 002°20'0 0.0
2016-Dec-02 01:29N 46°23' W 002°20'0 0.0
2016-Dec-02 00:24N 46°23' W 002°20'0 0.0
2016-Dec-01 23:33N 46°23' W 002°20'0 0.0
2016-Dec-01 22:33N 46°23' W 002°20'0 0.0
2016-Dec-01 21:34N 46°23' W 002°20'0 0.2
2016-Dec-01 20:34N 46°23' W 002°19'0 0.0
2016-Dec-01 19:33N 46°23' W 002°19'0 0.0
2016-Dec-01 18:33N 46°23' W 002°19'3 0.2
2016-Dec-01 07:22N 46°25' W 002°21'  
Track history (hours):
 
Tides and Currents Weather Stations Pressure Air Temp Water Temp Dewpoint Dewpoint Depression Visibility Wind Speed Wind Dir Waves Ship Positions

F/V Mare Liberum

Last reported at 2016-Dec-10 02:33 UTC. Time now 2016-Dec-10 03:09 UTC.
Position N 46°23' W 002°21'.

Length 21 m.

Type: Fishing. MMSI: 227426000.

Date/timePositionNaut miles runAvg speedWind from/ knotsBaromVisibWave heightAir tempDewpointWater temp
2016-Dec-10 02:33N 46°23' W 002°21'1 1.0
2016-Dec-10 01:34N 46°22' W 002°20'0 0.1
2016-Dec-10 00:34N 46°22' W 002°20'0 0.0
2016-Dec-09 23:34N 46°22' W 002°20'0 0.0
2016-Dec-09 22:33N 46°22' W 002°20'0 0.0
2016-Dec-09 21:34N 46°22' W 002°20'0 0.0
2016-Dec-09 20:33N 46°22' W 002°20'0 0.0
2016-Dec-09 19:32N 46°22' W 002°20'0 0.0
2016-Dec-09 18:33N 46°22' W 002°20'10 1.4
2016-Dec-09 11:30N 46°18' W 002°07'3 2.0
2016-Dec-09 10:11N 46°15' W 002°05'2 1.9
2016-Dec-09 09:15N 46°14' W 002°04'1 1.8
2016-Dec-09 08:33N 46°15' W 002°05'3 1.3
2016-Dec-09 06:33N 46°17' W 002°07'4 2.7
2016-Dec-09 05:12N 46°14' W 002°03'1 1.6
2016-Dec-09 04:23N 46°15' W 002°04'2 1.9
2016-Dec-09 03:31N 46°14' W 002°03'0 0.0
2016-Dec-09 02:33N 46°14' W 002°03'0 0.0
2016-Dec-09 01:34N 46°14' W 002°03'0 0.0
2016-Dec-09 00:34N 46°14' W 002°03'0 0.0
2016-Dec-08 23:31N 46°14' W 002°03'0 0.0
2016-Dec-08 22:23N 46°14' W 002°03'0 0.0
2016-Dec-08 19:26N 46°14' W 002°03'5 0.5
2016-Dec-08 10:24N 46°18' W 002°07'3 1.6
2016-Dec-08 08:22N 46°15' W 002°05'2 2.5
2016-Dec-08 07:29N 46°17' W 002°06'1 0.9
2016-Dec-08 06:19N 46°16' W 002°05'2 2.9
2016-Dec-08 05:30N 46°14' W 002°03'4 0.9
2016-Dec-08 00:33N 46°18' W 002°07'0 0.0
2016-Dec-07 21:32N 46°18' W 002°07'0 0.0
2016-Dec-07 20:32N 46°18' W 002°07'0 0.0
2016-Dec-07 19:29N 46°18' W 002°07'0 0.0
2016-Dec-07 18:28N 46°18' W 002°07'0 0.0
2016-Dec-07 17:22N 46°18' W 002°07'0 0.0
2016-Dec-07 16:13N 46°18' W 002°07'0 0.0
2016-Dec-07 15:33N 46°18' W 002°07'0 0.0
2016-Dec-07 14:33N 46°18' W 002°07'1 0.6
2016-Dec-07 13:32N 46°17' W 002°07'1 0.5
2016-Dec-07 12:33N 46°18' W 002°07'0 0.2
2016-Dec-07 11:28N 46°18' W 002°07'1 0.5
2016-Dec-07 10:23N 46°18' W 002°07'1 1.5
2016-Dec-07 09:32N 46°17' W 002°06'2 1.9
2016-Dec-07 08:30N 46°15' W 002°04'2 2.0
2016-Dec-07 07:32N 46°17' W 002°06'1 0.6
2016-Dec-07 06:29N 46°16' W 002°06'0 0.2
2016-Dec-07 05:33N 46°16' W 002°06'1 0.9
2016-Dec-07 04:21N 46°17' W 002°07'0 0.4
2016-Dec-07 03:30N 46°17' W 002°07'4 4.7
2016-Dec-07 02:33N 46°21' W 002°09'8 7.5
2016-Dec-07 01:33N 46°29' W 002°11'8 7.7
2016-Dec-07 00:33N 46°36' W 002°13'8 8.1
2016-Dec-06 23:33N 46°44' W 002°16'8 8.6
2016-Dec-06 22:33N 46°52' W 002°21'9 8.5
2016-Dec-06 21:31N 47°01' W 002°21'2 2.1
2016-Dec-06 20:33N 47°01' W 002°18'0 0.0
2016-Dec-06 18:32N 47°01' W 002°18'0 0.0
2016-Dec-06 17:33N 47°01' W 002°18'0 0.0
2016-Dec-06 16:34N 47°01' W 002°18'0 0.0
2016-Dec-06 15:33N 47°01' W 002°18'0 0.0
2016-Dec-06 14:34N 47°01' W 002°18'0 0.0
2016-Dec-06 13:33N 47°01' W 002°18'0 0.0
2016-Dec-06 12:33N 47°01' W 002°18'0 0.0
2016-Dec-06 11:33N 47°01' W 002°18'0 0.0
2016-Dec-06 10:34N 47°01' W 002°18'0 0.0
2016-Dec-06 09:32N 47°01' W 002°18'0 0.0
2016-Dec-06 08:34N 47°01' W 002°18'0 0.0
2016-Dec-06 07:33N 47°01' W 002°18'0 0.0
2016-Dec-06 06:34N 47°01' W 002°18'0 0.0
2016-Dec-06 05:34N 47°01' W 002°18'0 0.0
2016-Dec-06 04:34N 47°01' W 002°18'0 0.0
2016-Dec-06 03:31N 47°01' W 002°18'0 0.0
2016-Dec-06 02:32N 47°01' W 002°18'0 0.0
2016-Dec-06 01:33N 47°01' W 002°18'0 0.0
2016-Dec-06 00:33N 47°01' W 002°18'0 0.0
2016-Dec-05 23:33N 47°01' W 002°18'0 0.0
2016-Dec-05 22:34N 47°01' W 002°18'0 0.0
2016-Dec-05 21:34N 47°01' W 002°18'0 0.0
2016-Dec-05 20:33N 47°01' W 002°18'0 0.0
2016-Dec-05 19:34N 47°01' W 002°18'0 0.0
2016-Dec-05 18:33N 47°01' W 002°18'0 0.0
2016-Dec-05 17:32N 47°01' W 002°18'0 0.0
2016-Dec-05 16:33N 47°01' W 002°18'0 0.1
2016-Dec-05 15:33N 47°02' W 002°18'2 1.5
2016-Dec-05 14:32N 47°01' W 002°20'8 6.9
2016-Dec-05 13:20N 46°53' W 002°21'7 9.2
2016-Dec-05 12:33N 46°46' W 002°18'18 9.0
2016-Dec-05 10:34N 46°29' W 002°11'10 8.8
2016-Dec-05 09:28N 46°20' W 002°08'5 0.6
2016-Dec-05 01:15N 46°15' W 002°05'3 0.2
2016-Dec-04 11:15N 46°18' W 002°07'1 0.2
2016-Dec-04 07:24N 46°18' W 002°08'3 0.7
2016-Dec-04 03:23N 46°16' W 002°05'2 2.9
2016-Dec-04 02:32N 46°18' W 002°07'1 0.3
2016-Dec-03 22:10N 46°18' W 002°09'1 0.1
2016-Dec-03 13:32N 46°19' W 002°09'12 0.5
2016-Dec-02 14:23N 46°16' W 002°26'9 9.0
2016-Dec-02 13:27N 46°24' W 002°21'1 1.1
2016-Dec-02 12:32N 46°24' W 002°20'2 1.6
2016-Dec-02 11:31N 46°23' W 002°20'2 0.8
2016-Dec-02 09:23N 46°24' W 002°21'0 0.3
2016-Dec-02 08:25N 46°25' W 002°21'1 0.6
2016-Dec-02 07:32N 46°25' W 002°21'1 1.2
2016-Dec-02 06:33N 46°24' W 002°20'1 1.1
2016-Dec-02 05:32N 46°25' W 002°21'2 2.2
2016-Dec-02 04:33N 46°23' W 002°20'0 0.0
2016-Dec-02 03:33N 46°23' W 002°20'0 0.0
2016-Dec-02 02:33N 46°23' W 002°20'0 0.0
2016-Dec-02 01:29N 46°23' W 002°20'0 0.0
2016-Dec-02 00:24N 46°23' W 002°20'0 0.0
2016-Dec-01 23:33N 46°23' W 002°20'0 0.0
2016-Dec-01 22:33N 46°23' W 002°20'0 0.0
2016-Dec-01 21:34N 46°23' W 002°20'0 0.2
2016-Dec-01 20:34N 46°23' W 002°19'0 0.0
2016-Dec-01 19:33N 46°23' W 002°19'0 0.0
2016-Dec-01 18:33N 46°23' W 002°19'3 0.2
2016-Dec-01 07:22N 46°25' W 002°21'  

Dump ship's entire track history